sensor_id;sensor_type;location;lat;lon;timestamp;pressure;altitude;pressure_sealevel;temperature;humidity
16481;BME280;44634;54.110;12.138;2023-01-29T00:01:29;102079.44;;;5.17;100.00
16481;BME280;44634;54.110;12.138;2023-01-29T00:03:56;102112.09;;;5.10;100.00
16481;BME280;44634;54.110;12.138;2023-01-29T00:06:26;102110.34;;;5.29;100.00
16481;BME280;44634;54.110;12.138;2023-01-29T00:08:54;102100.59;;;5.51;100.00
16481;BME280;44634;54.110;12.138;2023-01-29T00:11:22;102101.09;;;5.20;100.00
16481;BME280;44634;54.110;12.138;2023-01-29T00:13:51;102077.22;;;5.83;100.00
16481;BME280;44634;54.110;12.138;2023-01-29T00:16:18;102059.69;;;5.83;100.00
16481;BME280;44634;54.110;12.138;2023-01-29T00:18:46;102043.06;;;5.65;100.00
16481;BME280;44634;54.110;12.138;2023-01-29T00:21:15;102046.13;;;5.19;100.00
16481;BME280;44634;54.110;12.138;2023-01-29T00:23:45;102050.09;;;5.27;100.00
16481;BME280;44634;54.110;12.138;2023-01-29T00:26:13;102053.25;;;5.72;100.00
16481;BME280;44634;54.110;12.138;2023-01-29T00:28:42;102041.56;;;5.79;100.00
16481;BME280;44634;54.110;12.138;2023-01-29T00:31:11;102040.19;;;5.53;100.00
16481;BME280;44634;54.110;12.138;2023-01-29T00:33:39;102060.44;;;5.49;100.00
16481;BME280;44634;54.110;12.138;2023-01-29T00:36:09;102064.19;;;5.62;100.00
16481;BME280;44634;54.110;12.138;2023-01-29T00:38:38;102048.72;;;6.11;100.00
16481;BME280;44634;54.110;12.138;2023-01-29T00:41:08;102026.13;;;6.07;100.00
16481;BME280;44634;54.110;12.138;2023-01-29T00:43:54;102003.94;;;5.78;100.00
16481;BME280;44634;54.110;12.138;2023-01-29T00:46:39;101989.28;;;5.74;100.00
16481;BME280;44634;54.110;12.138;2023-01-29T00:49:07;101994.72;;;5.52;100.00
16481;BME280;44634;54.110;12.138;2023-01-29T00:51:37;102010.25;;;5.57;100.00
16481;BME280;44634;54.110;12.138;2023-01-29T00:54:05;102016.97;;;5.99;100.00
16481;BME280;44634;54.110;12.138;2023-01-29T00:56:35;101985.78;;;6.10;100.00
16481;BME280;44634;54.110;12.138;2023-01-29T00:59:03;101991.13;;;5.89;100.00
16481;BME280;44634;54.110;12.138;2023-01-29T01:01:31;101984.47;;;6.01;100.00
16481;BME280;44634;54.110;12.138;2023-01-29T01:04:16;101966.06;;;6.01;100.00
16481;BME280;44634;54.110;12.138;2023-01-29T01:06:44;101984.31;;;5.51;100.00
16481;BME280;44634;54.110;12.138;2023-01-29T01:09:12;101995.09;;;5.62;100.00
16481;BME280;44634;54.110;12.138;2023-01-29T01:11:58;101998.50;;;5.64;100.00
16481;BME280;44634;54.110;12.138;2023-01-29T01:14:26;102004.97;;;5.93;100.00
16481;BME280;44634;54.110;12.138;2023-01-29T01:16:53;102020.75;;;5.38;100.00
16481;BME280;44634;54.110;12.138;2023-01-29T01:19:21;102030.16;;;5.78;100.00
16481;BME280;44634;54.110;12.138;2023-01-29T01:21:49;102022.59;;;5.91;100.00
16481;BME280;44634;54.110;12.138;2023-01-29T01:24:17;102056.47;;;5.41;100.00
16481;BME280;44634;54.110;12.138;2023-01-29T01:26:45;102057.56;;;5.73;100.00
16481;BME280;44634;54.110;12.138;2023-01-29T01:29:14;102070.19;;;5.83;100.00
16481;BME280;44634;54.110;12.138;2023-01-29T01:31:42;102070.84;;;5.70;100.00
16481;BME280;44634;54.110;12.138;2023-01-29T01:34:11;102077.09;;;6.03;100.00
16481;BME280;44634;54.110;12.138;2023-01-29T01:36:38;102075.75;;;6.13;100.00
16481;BME280;44634;54.110;12.138;2023-01-29T01:39:06;102089.72;;;5.59;100.00
16481;BME280;44634;54.110;12.138;2023-01-29T01:41:34;102108.38;;;5.53;100.00
16481;BME280;44634;54.110;12.138;2023-01-29T01:44:02;102132.16;;;5.29;100.00
16481;BME280;44634;54.110;12.138;2023-01-29T01:46:35;102162.41;;;5.38;100.00
16481;BME280;44634;54.110;12.138;2023-01-29T01:49:09;102172.56;;;5.64;100.00
16481;BME280;44634;54.110;12.138;2023-01-29T01:51:40;102201.69;;;5.77;100.00
16481;BME280;44634;54.110;12.138;2023-01-29T01:54:11;102201.69;;;5.58;100.00
16481;BME280;44634;54.110;12.138;2023-01-29T01:56:44;102224.75;;;5.71;100.00
16481;BME280;44634;54.110;12.138;2023-01-29T01:59:17;102191.69;;;5.85;100.00
16481;BME280;44634;54.110;12.138;2023-01-29T02:01:49;102202.72;;;5.93;100.00
16481;BME280;44634;54.110;12.138;2023-01-29T02:04:20;102181.50;;;5.98;100.00
16481;BME280;44634;54.110;12.138;2023-01-29T02:07:08;102188.22;;;5.85;100.00
16481;BME280;44634;54.110;12.138;2023-01-29T02:09:59;102158.09;;;6.30;100.00
16481;BME280;44634;54.110;12.138;2023-01-29T02:12:28;102151.97;;;5.74;100.00
16481;BME280;44634;54.110;12.138;2023-01-29T02:14:56;102172.78;;;5.79;100.00
16481;BME280;44634;54.110;12.138;2023-01-29T02:17:25;102158.66;;;5.81;100.00
16481;BME280;44634;54.110;12.138;2023-01-29T02:20:01;102147.00;;;6.06;100.00
16481;BME280;44634;54.110;12.138;2023-01-29T02:22:45;102121.75;;;6.20;100.00
16481;BME280;44634;54.110;12.138;2023-01-29T02:28:15;102114.25;;;5.95;100.00
16481;BME280;44634;54.110;12.138;2023-01-29T02:30:51;102130.78;;;5.97;100.00
16481;BME280;44634;54.110;12.138;2023-01-29T02:33:27;102142.06;;;5.81;100.00
16481;BME280;44634;54.110;12.138;2023-01-29T02:36:05;102167.50;;;5.60;100.00
16481;BME280;44634;54.110;12.138;2023-01-29T02:38:42;102174.31;;;6.02;100.00
16481;BME280;44634;54.110;12.138;2023-01-29T02:41:14;102173.06;;;5.91;100.00
16481;BME280;44634;54.110;12.138;2023-01-29T02:43:46;102179.03;;;6.31;100.00
16481;BME280;44634;54.110;12.138;2023-01-29T02:46:18;102161.03;;;6.23;100.00
16481;BME280;44634;54.110;12.138;2023-01-29T02:48:54;102146.31;;;6.02;100.00
16481;BME280;44634;54.110;12.138;2023-01-29T02:51:27;102139.59;;;6.14;100.00
16481;BME280;44634;54.110;12.138;2023-01-29T02:54:00;102138.44;;;6.19;100.00
16481;BME280;44634;54.110;12.138;2023-01-29T02:56:34;102141.84;;;6.21;100.00
16481;BME280;44634;54.110;12.138;2023-01-29T02:59:08;102147.22;;;6.01;100.00
16481;BME280;44634;54.110;12.138;2023-01-29T03:01:43;102149.88;;;6.18;100.00
16481;BME280;44634;54.110;12.138;2023-01-29T03:04:18;102136.06;;;6.15;100.00
16481;BME280;44634;54.110;12.138;2023-01-29T03:06:50;102123.16;;;6.10;100.00
16481;BME280;44634;54.110;12.138;2023-01-29T03:09:24;102107.59;;;6.06;100.00
16481;BME280;44634;54.110;12.138;2023-01-29T03:11:56;102101.78;;;6.35;100.00
16481;BME280;44634;54.110;12.138;2023-01-29T03:14:31;102082.59;;;6.16;100.00
16481;BME280;44634;54.110;12.138;2023-01-29T03:17:30;102079.91;;;6.35;100.00
16481;BME280;44634;54.110;12.138;2023-01-29T03:20:01;102081.41;;;6.23;100.00
16481;BME280;44634;54.110;12.138;2023-01-29T03:22:30;102089.31;;;6.21;100.00
16481;BME280;44634;54.110;12.138;2023-01-29T03:25:00;102081.75;;;6.15;100.00
16481;BME280;44634;54.110;12.138;2023-01-29T03:27:50;102072.09;;;6.33;100.00
16481;BME280;44634;54.110;12.138;2023-01-29T03:30:41;102070.72;;;6.09;100.00
16481;BME280;44634;54.110;12.138;2023-01-29T03:33:31;102089.22;;;6.06;100.00
16481;BME280;44634;54.110;12.138;2023-01-29T03:36:05;102090.16;;;6.05;100.00
16481;BME280;44634;54.110;12.138;2023-01-29T03:38:35;102083.78;;;6.45;100.00
16481;BME280;44634;54.110;12.138;2023-01-29T03:41:05;102069.63;;;6.47;100.00
16481;BME280;44634;54.110;12.138;2023-01-29T03:43:38;102081.53;;;6.54;100.00
16481;BME280;44634;54.110;12.138;2023-01-29T03:46:16;102067.19;;;6.27;100.00
16481;BME280;44634;54.110;12.138;2023-01-29T03:48:53;102070.47;;;6.48;100.00
16481;BME280;44634;54.110;12.138;2023-01-29T03:51:27;102065.31;;;6.29;100.00
16481;BME280;44634;54.110;12.138;2023-01-29T03:54:02;102081.59;;;6.36;100.00
16481;BME280;44634;54.110;12.138;2023-01-29T03:56:38;102070.50;;;6.31;100.00
16481;BME280;44634;54.110;12.138;2023-01-29T03:59:22;102045.00;;;6.33;100.00
16481;BME280;44634;54.110;12.138;2023-01-29T04:01:57;102053.63;;;6.69;100.00
16481;BME280;44634;54.110;12.138;2023-01-29T04:04:29;102026.66;;;6.66;100.00
16481;BME280;44634;54.110;12.138;2023-01-29T04:07:02;101996.94;;;6.64;100.00
16481;BME280;44634;54.110;12.138;2023-01-29T04:09:39;101992.41;;;6.67;100.00
16481;BME280;44634;54.110;12.138;2023-01-29T04:12:11;102001.00;;;6.86;100.00
16481;BME280;44634;54.110;12.138;2023-01-29T04:14:41;101980.63;;;6.41;100.00
16481;BME280;44634;54.110;12.138;2023-01-29T04:17:15;101990.06;;;6.28;100.00
16481;BME280;44634;54.110;12.138;2023-01-29T04:19:45;101987.84;;;6.38;100.00
16481;BME280;44634;54.110;12.138;2023-01-29T04:22:17;101974.31;;;6.28;100.00
16481;BME280;44634;54.110;12.138;2023-01-29T04:24:47;101975.38;;;6.41;100.00
16481;BME280;44634;54.110;12.138;2023-01-29T04:27:25;101994.31;;;6.31;100.00
16481;BME280;44634;54.110;12.138;2023-01-29T04:30:02;102015.59;;;6.09;100.00
16481;BME280;44634;54.110;12.138;2023-01-29T04:32:42;102003.88;;;6.49;100.00
16481;BME280;44634;54.110;12.138;2023-01-29T04:35:24;101990.16;;;6.60;100.00
16481;BME280;44634;54.110;12.138;2023-01-29T04:38:03;101994.91;;;6.36;100.00
16481;BME280;44634;54.110;12.138;2023-01-29T04:40:42;102007.88;;;6.23;100.00
16481;BME280;44634;54.110;12.138;2023-01-29T04:43:20;101994.63;;;6.42;100.00
16481;BME280;44634;54.110;12.138;2023-01-29T04:46:03;101993.72;;;6.59;100.00
16481;BME280;44634;54.110;12.138;2023-01-29T04:48:45;101999.41;;;6.51;100.00
16481;BME280;44634;54.110;12.138;2023-01-29T04:51:19;101976.44;;;6.54;100.00
16481;BME280;44634;54.110;12.138;2023-01-29T04:53:53;101991.72;;;6.13;100.00
16481;BME280;44634;54.110;12.138;2023-01-29T04:56:28;101989.63;;;6.37;100.00
16481;BME280;44634;54.110;12.138;2023-01-29T04:59:00;101982.66;;;6.69;100.00
16481;BME280;44634;54.110;12.138;2023-01-29T05:01:32;101997.53;;;6.36;100.00
16481;BME280;44634;54.110;12.138;2023-01-29T05:04:05;101989.59;;;6.20;100.00
16481;BME280;44634;54.110;12.138;2023-01-29T05:06:35;102015.34;;;6.31;100.00
16481;BME280;44634;54.110;12.138;2023-01-29T05:09:04;102017.34;;;6.43;100.00
16481;BME280;44634;54.110;12.138;2023-01-29T05:11:34;102011.63;;;6.52;100.00
16481;BME280;44634;54.110;12.138;2023-01-29T05:14:05;102001.69;;;6.24;100.00
16481;BME280;44634;54.110;12.138;2023-01-29T05:16:39;102012.75;;;6.46;100.00
16481;BME280;44634;54.110;12.138;2023-01-29T05:19:12;102005.13;;;6.42;100.00
16481;BME280;44634;54.110;12.138;2023-01-29T05:21:42;101993.34;;;6.49;100.00
16481;BME280;44634;54.110;12.138;2023-01-29T05:24:14;101976.03;;;6.12;100.00
16481;BME280;44634;54.110;12.138;2023-01-29T05:26:43;101983.19;;;6.43;100.00
16481;BME280;44634;54.110;12.138;2023-01-29T05:29:28;101930.22;;;6.17;100.00
16481;BME280;44634;54.110;12.138;2023-01-29T05:31:56;101936.50;;;6.48;100.00
16481;BME280;44634;54.110;12.138;2023-01-29T05:34:26;101920.69;;;6.32;100.00
16481;BME280;44634;54.110;12.138;2023-01-29T05:36:54;101923.34;;;6.48;100.00
16481;BME280;44634;54.110;12.138;2023-01-29T05:39:22;101925.50;;;6.57;100.00
16481;BME280;44634;54.110;12.138;2023-01-29T05:41:50;101911.50;;;6.56;100.00
16481;BME280;44634;54.110;12.138;2023-01-29T05:44:18;101929.75;;;6.26;100.00
16481;BME280;44634;54.110;12.138;2023-01-29T05:46:46;101916.97;;;6.03;100.00
16481;BME280;44634;54.110;12.138;2023-01-29T05:49:15;101923.59;;;6.43;100.00
16481;BME280;44634;54.110;12.138;2023-01-29T05:51:44;101935.78;;;6.29;100.00
16481;BME280;44634;54.110;12.138;2023-01-29T05:54:12;101946.38;;;6.27;100.00
16481;BME280;44634;54.110;12.138;2023-01-29T05:56:40;101941.63;;;6.34;100.00
16481;BME280;44634;54.110;12.138;2023-01-29T05:59:07;101944.41;;;6.64;100.00
16481;BME280;44634;54.110;12.138;2023-01-29T06:01:35;101938.53;;;6.43;100.00
16481;BME280;44634;54.110;12.138;2023-01-29T06:04:03;101936.75;;;6.43;100.00
16481;BME280;44634;54.110;12.138;2023-01-29T06:06:31;101914.44;;;6.50;100.00
16481;BME280;44634;54.110;12.138;2023-01-29T06:09:00;101904.50;;;6.73;100.00
16481;BME280;44634;54.110;12.138;2023-01-29T06:11:28;101903.34;;;6.45;100.00
16481;BME280;44634;54.110;12.138;2023-01-29T06:13:56;101882.59;;;6.88;100.00
16481;BME280;44634;54.110;12.138;2023-01-29T06:16:24;101875.94;;;6.67;100.00
16481;BME280;44634;54.110;12.138;2023-01-29T06:18:52;101874.38;;;6.94;100.00
16481;BME280;44634;54.110;12.138;2023-01-29T06:21:20;101847.94;;;6.66;100.00
16481;BME280;44634;54.110;12.138;2023-01-29T06:23:47;101862.84;;;6.65;100.00
16481;BME280;44634;54.110;12.138;2023-01-29T06:26:16;101872.59;;;6.63;100.00
16481;BME280;44634;54.110;12.138;2023-01-29T06:28:47;101874.91;;;6.53;100.00
16481;BME280;44634;54.110;12.138;2023-01-29T06:31:15;101887.03;;;6.56;100.00
16481;BME280;44634;54.110;12.138;2023-01-29T06:34:04;101875.31;;;6.62;100.00
16481;BME280;44634;54.110;12.138;2023-01-29T06:36:31;101854.91;;;6.51;100.00
16481;BME280;44634;54.110;12.138;2023-01-29T06:38:59;101863.09;;;6.61;100.00
16481;BME280;44634;54.110;12.138;2023-01-29T06:41:28;101852.84;;;6.40;100.00
16481;BME280;44634;54.110;12.138;2023-01-29T06:43:56;101856.06;;;6.61;100.00
16481;BME280;44634;54.110;12.138;2023-01-29T06:46:24;101853.25;;;6.48;100.00
16481;BME280;44634;54.110;12.138;2023-01-29T06:48:51;101885.03;;;6.28;100.00
16481;BME280;44634;54.110;12.138;2023-01-29T06:51:19;101896.50;;;6.43;100.00
16481;BME280;44634;54.110;12.138;2023-01-29T06:53:48;101883.88;;;6.65;100.00
16481;BME280;44634;54.110;12.138;2023-01-29T06:56:16;101874.91;;;6.69;100.00
16481;BME280;44634;54.110;12.138;2023-01-29T06:58:45;101869.09;;;6.31;100.00
16481;BME280;44634;54.110;12.138;2023-01-29T07:01:12;101869.47;;;6.41;100.00
16481;BME280;44634;54.110;12.138;2023-01-29T07:03:59;101874.72;;;6.56;100.00
16481;BME280;44634;54.110;12.138;2023-01-29T07:06:28;101873.88;;;6.56;100.00
16481;BME280;44634;54.110;12.138;2023-01-29T07:08:56;101862.69;;;7.00;100.00
16481;BME280;44634;54.110;12.138;2023-01-29T07:11:24;101850.81;;;6.77;100.00
16481;BME280;44634;54.110;12.138;2023-01-29T07:13:53;101837.75;;;6.60;100.00
16481;BME280;44634;54.110;12.138;2023-01-29T07:16:21;101837.09;;;6.72;100.00
16481;BME280;44634;54.110;12.138;2023-01-29T07:18:48;101841.69;;;6.68;100.00
16481;BME280;44634;54.110;12.138;2023-01-29T07:21:16;101839.63;;;6.73;100.00
16481;BME280;44634;54.110;12.138;2023-01-29T07:23:44;101864.19;;;6.41;100.00
16481;BME280;44634;54.110;12.138;2023-01-29T07:26:12;101869.94;;;6.32;100.00
16481;BME280;44634;54.110;12.138;2023-01-29T07:28:39;101888.13;;;6.68;100.00
16481;BME280;44634;54.110;12.138;2023-01-29T07:31:11;101893.31;;;6.36;100.00
16481;BME280;44634;54.110;12.138;2023-01-29T07:33:39;101901.75;;;6.43;100.00
16481;BME280;44634;54.110;12.138;2023-01-29T07:36:09;101895.94;;;6.69;100.00
16481;BME280;44634;54.110;12.138;2023-01-29T07:38:37;101888.88;;;6.54;100.00
16481;BME280;44634;54.110;12.138;2023-01-29T07:41:05;101878.78;;;6.78;100.00
16481;BME280;44634;54.110;12.138;2023-01-29T07:43:33;101858.19;;;6.86;100.00
16481;BME280;44634;54.110;12.138;2023-01-29T07:46:02;101870.03;;;6.46;100.00
16481;BME280;44634;54.110;12.138;2023-01-29T07:48:31;101872.28;;;6.69;100.00
16481;BME280;44634;54.110;12.138;2023-01-29T07:50:59;101884.53;;;6.37;100.00
16481;BME280;44634;54.110;12.138;2023-01-29T07:53:28;101897.44;;;6.73;100.00
16481;BME280;44634;54.110;12.138;2023-01-29T07:55:56;101902.69;;;6.73;100.00
16481;BME280;44634;54.110;12.138;2023-01-29T07:58:24;101884.13;;;6.61;100.00
16481;BME280;44634;54.110;12.138;2023-01-29T08:00:52;101881.00;;;7.01;100.00
16481;BME280;44634;54.110;12.138;2023-01-29T08:03:19;101864.66;;;6.80;100.00
16481;BME280;44634;54.110;12.138;2023-01-29T08:05:49;101865.66;;;7.09;100.00
16481;BME280;44634;54.110;12.138;2023-01-29T08:08:17;101869.75;;;6.68;100.00
16481;BME280;44634;54.110;12.138;2023-01-29T08:10:45;101868.34;;;6.61;100.00
16481;BME280;44634;54.110;12.138;2023-01-29T08:13:13;101863.91;;;7.24;100.00
16481;BME280;44634;54.110;12.138;2023-01-29T08:15:42;101844.88;;;6.89;100.00
16481;BME280;44634;54.110;12.138;2023-01-29T08:18:10;101847.41;;;6.91;100.00
16481;BME280;44634;54.110;12.138;2023-01-29T08:20:39;101821.41;;;7.16;100.00
16481;BME280;44634;54.110;12.138;2023-01-29T08:23:13;101820.28;;;6.90;100.00
16481;BME280;44634;54.110;12.138;2023-01-29T08:25:42;101811.63;;;6.88;100.00
16481;BME280;44634;54.110;12.138;2023-01-29T08:28:10;101804.53;;;7.34;100.00
16481;BME280;44634;54.110;12.138;2023-01-29T08:30:38;101787.75;;;7.51;100.00
16481;BME280;44634;54.110;12.138;2023-01-29T08:33:05;101794.53;;;7.11;100.00
16481;BME280;44634;54.110;12.138;2023-01-29T08:35:33;101789.00;;;7.15;100.00
16481;BME280;44634;54.110;12.138;2023-01-29T08:38:01;101778.78;;;7.11;100.00
16481;BME280;44634;54.110;12.138;2023-01-29T08:40:32;101781.72;;;7.05;100.00
16481;BME280;44634;54.110;12.138;2023-01-29T08:43:02;101777.50;;;7.32;100.00
16481;BME280;44634;54.110;12.138;2023-01-29T08:45:34;101787.16;;;7.32;100.00
16481;BME280;44634;54.110;12.138;2023-01-29T08:48:03;101769.97;;;7.26;100.00
16481;BME280;44634;54.110;12.138;2023-01-29T08:50:32;101765.56;;;6.97;100.00
16481;BME280;44634;54.110;12.138;2023-01-29T08:53:02;101752.63;;;7.38;100.00
16481;BME280;44634;54.110;12.138;2023-01-29T08:55:31;101784.06;;;6.79;100.00
16481;BME280;44634;54.110;12.138;2023-01-29T08:57:59;101781.34;;;6.97;100.00
16481;BME280;44634;54.110;12.138;2023-01-29T09:00:26;101783.94;;;7.12;100.00
16481;BME280;44634;54.110;12.138;2023-01-29T09:02:54;101750.59;;;7.13;100.00
16481;BME280;44634;54.110;12.138;2023-01-29T09:05:22;101734.25;;;7.22;100.00
16481;BME280;44634;54.110;12.138;2023-01-29T09:07:50;101736.34;;;7.31;100.00
16481;BME280;44634;54.110;12.138;2023-01-29T09:10:19;101746.63;;;6.60;100.00
16481;BME280;44634;54.110;12.138;2023-01-29T09:12:48;101774.69;;;7.05;100.00
16481;BME280;44634;54.110;12.138;2023-01-29T09:15:16;101768.00;;;6.70;100.00
16481;BME280;44634;54.110;12.138;2023-01-29T09:17:45;101784.53;;;6.72;100.00
16481;BME280;44634;54.110;12.138;2023-01-29T09:20:15;101772.81;;;6.77;100.00
16481;BME280;44634;54.110;12.138;2023-01-29T09:22:43;101780.53;;;6.49;100.00
16481;BME280;44634;54.110;12.138;2023-01-29T09:25:11;101769.03;;;6.51;100.00
16481;BME280;44634;54.110;12.138;2023-01-29T09:27:40;101763.09;;;6.94;100.00
16481;BME280;44634;54.110;12.138;2023-01-29T09:30:10;101764.81;;;6.79;100.00
16481;BME280;44634;54.110;12.138;2023-01-29T09:32:38;101760.28;;;6.67;100.00
16481;BME280;44634;54.110;12.138;2023-01-29T09:35:22;101734.41;;;7.05;100.00
16481;BME280;44634;54.110;12.138;2023-01-29T09:37:50;101712.66;;;6.57;100.00
16481;BME280;44634;54.110;12.138;2023-01-29T09:40:23;101713.75;;;6.69;100.00
16481;BME280;44634;54.110;12.138;2023-01-29T09:42:56;101700.69;;;6.97;100.00
16481;BME280;44634;54.110;12.138;2023-01-29T09:45:29;101677.91;;;7.12;100.00
16481;BME280;44634;54.110;12.138;2023-01-29T09:47:59;101661.09;;;7.29;100.00
16481;BME280;44634;54.110;12.138;2023-01-29T09:50:30;101661.03;;;6.86;100.00
16481;BME280;44634;54.110;12.138;2023-01-29T09:53:02;101666.41;;;6.99;100.00
16481;BME280;44634;54.110;12.138;2023-01-29T09:55:34;101674.56;;;6.80;100.00
16481;BME280;44634;54.110;12.138;2023-01-29T09:58:09;101651.78;;;6.95;100.00
16481;BME280;44634;54.110;12.138;2023-01-29T10:00:50;101637.81;;;6.78;100.00
16481;BME280;44634;54.110;12.138;2023-01-29T10:03:42;101625.00;;;7.02;100.00
16481;BME280;44634;54.110;12.138;2023-01-29T10:06:22;101612.59;;;7.19;100.00
16481;BME280;44634;54.110;12.138;2023-01-29T10:12:04;101632.13;;;6.86;100.00
16481;BME280;44634;54.110;12.138;2023-01-29T10:14:42;101602.56;;;6.97;100.00
16481;BME280;44634;54.110;12.138;2023-01-29T10:17:36;101606.13;;;6.81;100.00
16481;BME280;44634;54.110;12.138;2023-01-29T10:20:19;101608.19;;;6.91;100.00
16481;BME280;44634;54.110;12.138;2023-01-29T10:23:12;101598.59;;;6.90;100.00
16481;BME280;44634;54.110;12.138;2023-01-29T10:25:44;101604.25;;;6.83;100.00
16481;BME280;44634;54.110;12.138;2023-01-29T10:28:16;101581.16;;;7.17;100.00
16481;BME280;44634;54.110;12.138;2023-01-29T10:30:47;101591.38;;;7.07;100.00
16481;BME280;44634;54.110;12.138;2023-01-29T10:33:22;101599.34;;;7.06;100.00
16481;BME280;44634;54.110;12.138;2023-01-29T10:35:54;101597.81;;;6.59;100.00
16481;BME280;44634;54.110;12.138;2023-01-29T10:38:35;101605.53;;;6.91;100.00
16481;BME280;44634;54.110;12.138;2023-01-29T10:41:20;101566.59;;;7.11;100.00
16481;BME280;44634;54.110;12.138;2023-01-29T10:44:00;101574.75;;;6.93;100.00
16481;BME280;44634;54.110;12.138;2023-01-29T10:46:46;101566.69;;;6.81;100.00
16481;BME280;44634;54.110;12.138;2023-01-29T10:49:32;101562.53;;;6.92;100.00
16481;BME280;44634;54.110;12.138;2023-01-29T10:52:10;101565.19;;;7.06;100.00
16481;BME280;44634;54.110;12.138;2023-01-29T10:55:00;101558.97;;;7.07;100.00
16481;BME280;44634;54.110;12.138;2023-01-29T10:57:41;101537.94;;;7.07;100.00
16481;BME280;44634;54.110;12.138;2023-01-29T11:00:18;101543.59;;;7.01;100.00
16481;BME280;44634;54.110;12.138;2023-01-29T11:02:48;101513.16;;;7.11;100.00
16481;BME280;44634;54.110;12.138;2023-01-29T11:05:24;101514.28;;;7.07;100.00
16481;BME280;44634;54.110;12.138;2023-01-29T11:08:00;101492.19;;;7.24;100.00
16481;BME280;44634;54.110;12.138;2023-01-29T11:10:32;101494.66;;;7.12;100.00
16481;BME280;44634;54.110;12.138;2023-01-29T11:13:04;101486.66;;;7.14;100.00
16481;BME280;44634;54.110;12.138;2023-01-29T11:15:32;101483.06;;;7.29;100.00
16481;BME280;44634;54.110;12.138;2023-01-29T11:18:06;101494.38;;;7.03;100.00
16481;BME280;44634;54.110;12.138;2023-01-29T11:20:37;101493.34;;;6.91;100.00
16481;BME280;44634;54.110;12.138;2023-01-29T11:23:05;101492.13;;;7.11;100.00
16481;BME280;44634;54.110;12.138;2023-01-29T11:25:33;101502.31;;;7.30;100.00
16481;BME280;44634;54.110;12.138;2023-01-29T11:28:01;101490.81;;;7.72;100.00
16481;BME280;44634;54.110;12.138;2023-01-29T11:30:32;101482.34;;;7.13;100.00
16481;BME280;44634;54.110;12.138;2023-01-29T11:33:16;101478.53;;;7.31;100.00
16481;BME280;44634;54.110;12.138;2023-01-29T11:35:46;101476.91;;;7.02;100.00
16481;BME280;44634;54.110;12.138;2023-01-29T11:38:19;101487.91;;;6.94;100.00
16481;BME280;44634;54.110;12.138;2023-01-29T11:40:48;101478.41;;;7.06;100.00
16481;BME280;44634;54.110;12.138;2023-01-29T11:43:19;101467.84;;;7.20;100.00
16481;BME280;44634;54.110;12.138;2023-01-29T11:45:48;101477.78;;;6.88;100.00
16481;BME280;44634;54.110;12.138;2023-01-29T11:48:18;101465.69;;;6.85;100.00
16481;BME280;44634;54.110;12.138;2023-01-29T11:50:52;101453.91;;;7.05;100.00
16481;BME280;44634;54.110;12.138;2023-01-29T11:53:36;101446.56;;;7.37;100.00
16481;BME280;44634;54.110;12.138;2023-01-29T11:56:16;101449.97;;;6.98;100.00
16481;BME280;44634;54.110;12.138;2023-01-29T11:58:45;101432.91;;;6.91;100.00
16481;BME280;44634;54.110;12.138;2023-01-29T12:01:15;101430.88;;;7.36;100.00
16481;BME280;44634;54.110;12.138;2023-01-29T12:03:47;101433.00;;;6.90;100.00
16481;BME280;44634;54.110;12.138;2023-01-29T12:06:20;101430.75;;;6.98;100.00
16481;BME280;44634;54.110;12.138;2023-01-29T12:08:54;101436.00;;;6.98;100.00
16481;BME280;44634;54.110;12.138;2023-01-29T12:11:26;101438.94;;;6.50;100.00
16481;BME280;44634;54.110;12.138;2023-01-29T12:13:55;101454.16;;;6.60;100.00
16481;BME280;44634;54.110;12.138;2023-01-29T12:16:27;101452.47;;;6.59;100.00
16481;BME280;44634;54.110;12.138;2023-01-29T12:19:04;101440.16;;;6.73;100.00
16481;BME280;44634;54.110;12.138;2023-01-29T12:21:42;101436.13;;;6.82;100.00
16481;BME280;44634;54.110;12.138;2023-01-29T12:24:23;101465.97;;;6.52;100.00
16481;BME280;44634;54.110;12.138;2023-01-29T12:27:00;101435.84;;;6.44;100.00
16481;BME280;44634;54.110;12.138;2023-01-29T12:29:37;101449.84;;;6.44;100.00
16481;BME280;44634;54.110;12.138;2023-01-29T12:32:13;101451.50;;;6.45;100.00
16481;BME280;44634;54.110;12.138;2023-01-29T12:34:49;101441.28;;;6.69;100.00
16481;BME280;44634;54.110;12.138;2023-01-29T12:37:23;101461.81;;;6.48;100.00
16481;BME280;44634;54.110;12.138;2023-01-29T12:39:55;101443.19;;;6.53;100.00
16481;BME280;44634;54.110;12.138;2023-01-29T12:42:23;101427.31;;;6.69;100.00
16481;BME280;44634;54.110;12.138;2023-01-29T12:44:53;101433.22;;;6.30;100.00
16481;BME280;44634;54.110;12.138;2023-01-29T12:47:27;101465.78;;;6.41;100.00
16481;BME280;44634;54.110;12.138;2023-01-29T12:50:02;101440.66;;;6.51;100.00
16481;BME280;44634;54.110;12.138;2023-01-29T12:52:37;101430.03;;;6.67;100.00
16481;BME280;44634;54.110;12.138;2023-01-29T12:55:10;101398.81;;;6.90;100.00
16481;BME280;44634;54.110;12.138;2023-01-29T12:57:44;101404.66;;;6.95;100.00
16481;BME280;44634;54.110;12.138;2023-01-29T13:00:18;101398.34;;;6.97;100.00
16481;BME280;44634;54.110;12.138;2023-01-29T13:02:51;101379.72;;;6.73;100.00
16481;BME280;44634;54.110;12.138;2023-01-29T13:05:24;101371.50;;;6.92;100.00
16481;BME280;44634;54.110;12.138;2023-01-29T13:07:57;101397.31;;;7.00;100.00
16481;BME280;44634;54.110;12.138;2023-01-29T13:10:29;101363.63;;;6.78;100.00
16481;BME280;44634;54.110;12.138;2023-01-29T13:13:04;101375.59;;;7.10;100.00